createdAt,value
2018-10-07T07:21:27.969Z,14.29
2018-10-07T07:23:57.132Z,14.28
2018-10-07T07:26:26.873Z,14.24
2018-10-07T07:28:56.988Z,14.23
2018-10-07T07:31:26.990Z,14.25
2018-10-07T07:33:56.989Z,14.23
2018-10-07T07:36:27.028Z,14.25
2018-10-07T07:38:56.939Z,14.26
2018-10-07T07:41:27.070Z,14.27
2018-10-07T07:43:56.997Z,14.30
2018-10-07T07:46:27.064Z,14.32
2018-10-07T07:48:57.004Z,14.34
2018-10-07T07:51:27.066Z,14.37
2018-10-07T07:53:57.153Z,14.36
2018-10-07T07:56:27.066Z,14.39
2018-10-07T07:58:57.216Z,14.47
2018-10-07T08:01:27.187Z,14.48
2018-10-07T08:03:57.430Z,14.46
2018-10-07T08:06:27.198Z,14.49
2018-10-07T08:08:57.589Z,14.54
2018-10-07T08:11:27.266Z,14.57
2018-10-07T08:13:57.350Z,14.61
2018-10-07T08:16:27.296Z,14.66
2018-10-07T08:18:57.496Z,14.74
2018-10-07T08:21:31.744Z,14.81
2018-10-07T08:24:00.897Z,14.87
2018-10-07T08:26:30.090Z,14.93
2018-10-07T08:28:59.309Z,14.97
2018-10-07T08:31:28.474Z,15.01
2018-10-07T08:33:57.625Z,15.05
2018-10-07T08:36:27.460Z,15.11
2018-10-07T08:38:57.581Z,15.11
2018-10-07T08:41:27.503Z,15.18
2018-10-07T08:43:57.552Z,15.24
2018-10-07T08:46:27.540Z,15.31
2018-10-07T08:48:57.598Z,15.34
2018-10-07T08:51:27.604Z,15.39
2018-10-07T08:53:57.652Z,15.43
2018-10-07T08:56:27.664Z,15.40
2018-10-07T08:58:57.653Z,15.55
2018-10-07T09:01:27.696Z,15.64
2018-10-07T09:03:57.725Z,15.68
2018-10-07T09:06:28.181Z,15.70
2018-10-07T09:08:58.142Z,15.73
2018-10-07T09:11:28.765Z,15.79
2018-10-07T09:13:58.132Z,15.89
2018-10-07T09:16:28.295Z,15.94
2018-10-07T09:18:58.049Z,16.03
2018-10-07T09:21:28.388Z,16.12
2018-10-07T09:23:57.682Z,16.18
2018-10-07T09:26:28.895Z,16.23
2018-10-07T09:28:58.170Z,16.32
2018-10-07T09:31:28.165Z,16.21
2018-10-07T09:33:57.649Z,16.41
2018-10-07T09:36:27.464Z,16.48
2018-10-07T09:38:56.849Z,16.53
2018-10-07T09:41:26.087Z,16.62
2018-10-07T09:46:38.049Z,16.79
2018-10-07T09:49:07.702Z,16.86
2018-10-07T09:51:36.965Z,16.91
2018-10-07T09:54:06.510Z,16.97
2018-10-07T09:56:35.776Z,17.03
2018-10-07T09:59:05.050Z,17.10
2018-10-07T10:01:34.267Z,17.15
2018-10-07T10:04:03.554Z,17.23
2018-10-07T10:06:32.768Z,17.31
2018-10-07T10:09:02.161Z,17.40
2018-10-07T10:11:31.778Z,17.50
2018-10-07T10:14:01.126Z,17.60
2018-10-07T10:16:39.422Z,17.70
2018-10-07T10:19:12.712Z,17.78
2018-10-07T10:21:45.662Z,17.92
2018-10-07T10:24:21.844Z,18.12
2018-10-07T10:29:19.599Z,18.42
2018-10-07T10:32:00.394Z,18.79
2018-10-07T10:34:42.241Z,18.94
2018-10-07T10:37:14.749Z,19.12
2018-10-07T10:39:51.605Z,19.28
2018-10-07T10:43:33.675Z,19.40
2018-10-07T10:46:11.131Z,19.41
2018-10-07T10:51:03.581Z,19.37
2018-10-07T10:53:41.011Z,19.19
2018-10-07T10:56:29.435Z,19.16
2018-10-07T10:59:39.377Z,19.06
2018-10-07T11:03:20.559Z,19.09
2018-10-07T11:06:06.457Z,19.17
2018-10-07T11:09:20.387Z,19.17
2018-10-07T11:11:57.305Z,19.24
2018-10-07T11:15:16.114Z,19.29
2018-10-07T11:18:02.290Z,19.34
2018-10-07T11:20:47.224Z,19.49
2018-10-07T11:23:28.006Z,19.57
2018-10-07T11:26:14.492Z,19.60
2018-10-07T11:28:51.541Z,19.67
2018-10-07T11:31:51.039Z,19.58
2018-10-07T11:36:53.166Z,19.56
2018-10-07T11:39:41.947Z,19.48
2018-10-07T11:42:17.229Z,19.37
2018-10-07T11:45:23.075Z,19.22
2018-10-07T11:48:03.311Z,19.13
2018-10-07T11:50:41.526Z,19.05
2018-10-07T11:53:34.603Z,19.00
2018-10-07T11:56:04.612Z,18.98
2018-10-07T11:58:35.032Z,18.97
2018-10-07T12:01:05.239Z,19.01
2018-10-07T12:03:35.547Z,18.98
2018-10-07T12:06:05.509Z,18.89
2018-10-07T12:08:35.807Z,18.80
2018-10-07T12:11:06.029Z,18.75
2018-10-07T12:13:36.030Z,18.69
2018-10-07T12:16:05.915Z,18.65
2018-10-07T12:18:36.017Z,18.64
2018-10-07T12:21:06.172Z,18.60
2018-10-07T12:23:36.019Z,18.54
2018-10-07T12:26:06.230Z,18.53
2018-10-07T12:28:37.301Z,18.50
2018-10-07T12:31:08.078Z,18.49
2018-10-07T12:33:38.011Z,18.47
2018-10-07T12:36:09.046Z,18.44
2018-10-07T12:38:39.150Z,18.39
2018-10-07T12:41:09.082Z,18.41
2018-10-07T12:43:38.872Z,18.44
2018-10-07T12:46:09.002Z,18.47
2018-10-07T12:48:38.924Z,18.48
2018-10-07T12:51:08.971Z,18.54
2018-10-07T12:53:40.966Z,18.56
2018-10-07T12:56:10.867Z,18.56
2018-10-07T12:58:41.056Z,18.53
2018-10-07T13:01:10.926Z,18.54
2018-10-07T13:03:40.890Z,18.56
2018-10-07T13:06:10.971Z,18.62
2018-10-07T13:08:40.884Z,18.60
2018-10-07T13:11:10.741Z,18.63
2018-10-07T13:13:40.806Z,18.66
2018-10-07T13:16:10.903Z,18.69
2018-10-07T13:18:40.855Z,18.74
2018-10-07T13:21:10.993Z,18.67
2018-10-07T13:23:41.018Z,18.59
2018-10-07T13:26:11.139Z,18.63
2018-10-07T13:28:41.643Z,18.73
2018-10-07T13:31:14.871Z,18.88
2018-10-07T13:33:45.110Z,19.07
2018-10-07T13:36:15.093Z,19.27
2018-10-07T13:38:45.483Z,19.37
2018-10-07T13:41:15.381Z,19.35
2018-10-07T13:43:45.637Z,19.27
2018-10-07T13:46:15.744Z,19.19
2018-10-07T13:48:46.091Z,19.03
2018-10-07T13:51:16.106Z,18.89
2018-10-07T13:53:46.334Z,18.79
2018-10-07T13:56:16.505Z,18.76
2018-10-07T13:58:46.554Z,18.79
2018-10-07T14:01:17.089Z,18.81
2018-10-07T14:03:46.951Z,18.77
2018-10-07T14:06:16.998Z,18.75
2018-10-07T14:08:47.366Z,18.72
2018-10-07T14:11:17.543Z,18.70
2018-10-07T14:13:47.451Z,18.66
2018-10-07T14:16:17.609Z,18.65
2018-10-07T14:32:06.050Z,18.65
2018-10-07T14:34:35.411Z,18.69
2018-10-07T14:37:04.785Z,18.79
2018-10-07T14:39:34.276Z,18.88
2018-10-07T14:42:03.753Z,19.16
2018-10-07T14:44:33.135Z,19.72
2018-10-07T14:47:02.694Z,20.28
2018-10-07T14:49:32.084Z,20.55
2018-10-07T14:52:01.402Z,20.55
2018-10-07T14:54:31.714Z,20.45
2018-10-07T14:57:01.168Z,20.40
2018-10-07T14:59:30.989Z,20.28
2018-10-07T15:02:01.106Z,20.27
2018-10-07T15:04:31.293Z,20.37
